LO159 / SP-LWC 7700 Squawk Report (4th of July, 2022)

Aircraft B738 Reg No. SP-LWC Age 17 years old
Model 737 Jet engines 2 First flight 21-04-05
Registered 02-06-17 Rollout 14-04-05 Delivered 09-05-05
Construction No. 30691 Line No. 1702 Series 89P
ADSHEX 48AE82 Airline name LOT Polish Airlines Owner Aercap Holdings N.V.
Airfield based Warsaw-Okecie~Mazowieckie~SP First tracked N/A

Flight history for SP-LWC

Route Flight No Date Playback
Tbilisi (TBS) - Warsaw Chopin (WAW) LO724 2022-08-12 03:43:00
Warsaw Chopin (WAW) - Tbilisi (TBS) LO723 2022-08-12 01:37:00
Barcelona–El Prat (BCN) - Warsaw Chopin (WAW) LO438 2022-08-11 20:27:00
Warsaw Chopin (WAW) - Barcelona–El Prat (BCN) LO437 2022-08-11 11:29:00
Tbilisi (TBS) - Warsaw Chopin (WAW) LO724 2022-08-11 07:30:00
Warsaw Chopin (WAW) - Tbilisi (TBS) LO1723 2022-08-11 00:33:00
???? N/A 2022-08-10 21:18:00
???? N/A 2022-08-10 15:55:00
???? N/A 2022-08-10 10:43:00
???? LO6213 2022-08-10 07:15:00
Moi International Airport (MBA) - Warsaw Chopin (WAW) N/A 2022-08-10 05:19:00
???? LO6207 2022-08-09 18:11:00
???? N/A 2022-08-09 16:35:00
???? N/A 2022-08-09 13:35:00
???? LO6208 2022-08-09 09:23:00
Warsaw Chopin (WAW) - Moi International Airport (MBA) LO6205 2022-08-09 06:33:00
Copenhagen Airport (CPH) - Warsaw Chopin (WAW) LO462 2022-08-08 19:22:00
Warsaw Chopin (WAW) - Copenhagen Airport (CPH) LO461 2022-08-08 16:52:00
???? N/A 2022-08-08 12:42:00
???? LO6357 2022-08-08 09:14:00
Time Lat Lon Altitude Heading Speed Vertical Rate
2022-07-04 02:24:39 GMT 52.175293 20.962776 0 331 12 0
2022-07-04 02:24:29 GMT 52.174828 20.963169 0 334 12 0
2022-07-04 02:24:25 GMT 52.174599 20.963326 0 351 13 0
2022-07-04 02:24:14 GMT 52.173992 20.963001 0 47 15 0
2022-07-04 02:24:04 GMT 52.173409 20.962486 0 2 22 0
2022-07-04 02:23:37 GMT 52.169533 20.963818 175 331 46 0
2022-07-04 02:23:22 GMT 52.165276 20.967564 175 333 108 -128
2022-07-04 02:23:13 GMT 52.160713 20.971565 200 333 149 -256
2022-07-04 02:23:03 GMT 52.154617 20.976791 275 332 155 -768
2022-07-04 02:22:53 GMT 52.148190 20.982473 425 332 159 -768
2022-07-04 02:22:47 GMT 52.144592 20.985641 500 332 159 -896
2022-07-04 02:22:41 GMT 52.140289 20.989380 600 332 160 -832
2022-07-04 02:22:33 GMT 52.134933 20.994110 700 332 160 -832
2022-07-04 02:22:30 GMT 52.133240 20.995560 750 332 160 -832
2022-07-04 02:22:26 GMT 52.130405 20.998013 800 332 160 -832
2022-07-04 02:22:23 GMT 52.128387 20.999832 850 332 160 -832
2022-07-04 02:22:13 GMT 52.121609 21.005781 1,000 332 161 -832
2022-07-04 02:22:05 GMT 52.116394 21.010284 1,100 333 160 -896
2022-07-04 02:22:01 GMT 52.113510 21.012802 1,175 332 160 -832
2022-07-04 02:21:52 GMT 52.108292 21.017456 1,275 332 161 -832
2022-07-04 02:21:49 GMT 52.106617 21.018887 1,325 333 161 -832
2022-07-04 02:21:43 GMT 52.102474 21.022417 1,400 333 161 -832
2022-07-04 02:21:40 GMT 52.100380 21.024221 1,475 333 161 -832
2022-07-04 02:21:35 GMT 52.096985 21.027145 1,525 333 161 -832
2022-07-04 02:21:32 GMT 52.094971 21.028824 1,575 332 161 -832
2022-07-04 02:21:28 GMT 52.092361 21.031113 1,700 332 161 -896
2022-07-04 02:21:25 GMT 52.090603 21.032698 1,675 332 161 -896
2022-07-04 02:21:22 GMT 52.088276 21.034739 1,725 332 161 -896
2022-07-04 02:21:19 GMT 52.086456 21.036301 1,775 332 160 -832
2022-07-04 02:21:16 GMT 52.084625 21.037979 1,825 332 162 -832
2022-07-04 02:21:13 GMT 52.082886 21.039505 1,825 332 162 -832
2022-07-04 02:21:09 GMT 52.077759 21.043930 2,400 332 172 -896
2022-07-04 02:21:06 GMT 52.077759 21.043930 2,400 332 172 -896
2022-07-04 02:20:59 GMT 52.072403 21.048628 2,050 332 177 -832
2022-07-04 02:20:55 GMT 52.070297 21.050415 2,400 332 195 -960
2022-07-04 02:20:51 GMT 52.067234 21.053179 2,150 332 183 -960
2022-07-04 02:20:48 GMT 52.064999 21.055141 2,225 332 186 -1024
2022-07-04 02:20:44 GMT 52.062103 21.057587 2,275 333 187 -1088
2022-07-04 02:20:41 GMT 52.059788 21.059614 2,375 332 190 -1152
2022-07-04 02:20:38 GMT 52.057022 21.062012 2,400 332 191 -1152
2022-07-04 02:20:35 GMT 52.054806 21.063931 2,450 332 195 -960
2022-07-04 02:20:31 GMT 52.051346 21.066971 2,500 332 195 -896
2022-07-04 02:20:28 GMT 52.048599 21.069336 2,575 332 195 -960
2022-07-04 02:20:25 GMT 52.046494 21.071167 2,600 333 198 -1024
2022-07-04 02:20:21 GMT 52.043587 21.073738 2,675 332 197 -960
2022-07-04 02:20:17 GMT 52.040977 21.075935 2,750 333 198 -1024
2022-07-04 02:20:14 GMT 52.037628 21.078840 2,800 333 198 -1088
2022-07-04 02:20:11 GMT 52.035114 21.081038 2,850 332 197 -1152
2022-07-04 02:20:07 GMT 52.032852 21.082993 2,900 332 198 -1088
2022-07-04 02:20:04 GMT 52.030087 21.085432 2,975 332 198 -1152
2022-07-04 02:20:00 GMT 52.026993 21.088181 3,075 334 199 -1088
2022-07-04 02:19:57 GMT 52.024017 21.090698 3,100 335 199 -1024
2022-07-04 02:19:54 GMT 52.021984 21.092258 3,150 337 199 -1088
2022-07-04 02:19:50 GMT 52.018589 21.094612 3,225 341 200 -1024
2022-07-04 02:19:45 GMT 52.013718 21.097183 3,300 349 202 -832
2022-07-04 02:19:41 GMT 52.006943 21.099548 3,375 350 204 -832
2022-07-04 02:19:37 GMT 52.006943 21.099548 3,425 354 205 -832
2022-07-04 02:19:34 GMT 52.003693 21.100027 3,475 359 207 -896
2022-07-04 02:19:30 GMT 52.000168 21.100235 3,525 0 208 -832
2022-07-04 02:19:27 GMT 51.997173 21.100264 3,575 0 209 -896
2022-07-04 02:19:23 GMT 51.993450 21.100342 3,625 0 210 -1088
2022-07-04 02:19:19 GMT 51.989960 21.100388 3,700 0 211 -1024
2022-07-04 02:19:16 GMT 51.986931 21.100498 3,750 0 212 -1024
2022-07-04 02:19:13 GMT 51.983368 21.100540 3,800 359 216 -1216
2022-07-04 02:19:10 GMT 51.980556 21.100657 3,875 359 215 -1216
2022-07-04 02:19:07 GMT 51.976593 21.100769 3,925 359 217 -1280
2022-07-04 02:19:03 GMT 51.973572 21.100891 4,000 359 219 -1408
2022-07-04 02:18:59 GMT 51.969986 21.101048 4,075 359 219 -1344
2022-07-04 02:18:54 GMT 51.964188 21.101303 4,175 359 223 -704
2022-07-04 02:18:49 GMT 51.959656 21.101532 4,225 359 227 -448
2022-07-04 02:18:45 GMT 51.954952 21.101833 4,300 358 234 -768
2022-07-04 02:18:39 GMT 51.948441 21.102142 4,325 358 237 -768
2022-07-04 02:18:35 GMT 51.944153 21.102461 4,375 358 242 -192
2022-07-04 02:18:29 GMT 51.937214 21.102854 4,400 359 249 -192
2022-07-04 02:18:26 GMT 51.933380 21.103058 4,400 359 252 -128
2022-07-04 02:18:21 GMT 51.928230 21.103245 4,425 359 256 -384
2022-07-04 02:18:18 GMT 51.925297 21.103325 4,450 359 258 -768
2022-07-04 02:18:13 GMT 51.918457 21.103516 4,525 359 260 -896
2022-07-04 02:18:08 GMT 51.913288 21.103716 4,600 359 263 -960
2022-07-04 02:18:03 GMT 51.905045 21.103897 4,700 0 266 -960
2022-07-04 02:17:59 GMT 51.901062 21.103973 4,750 0 268 -960
2022-07-04 02:17:55 GMT 51.897354 21.104126 4,800 0 270 -960
2022-07-04 02:17:52 GMT 51.893177 21.104202 4,850 0 271 -960
2022-07-04 02:17:46 GMT 51.884308 21.104439 4,950 0 276 -832
2022-07-04 02:17:40 GMT 51.876480 21.104588 5,025 0 279 -1024
2022-07-04 02:17:36 GMT 51.872601 21.104584 5,100 0 282 -1024
2022-07-04 02:17:33 GMT 51.868652 21.104662 5,125 0 284 -1024
2022-07-04 02:17:28 GMT 51.861557 21.104662 5,225 0 286 -1024
2022-07-04 02:17:25 GMT 51.857666 21.104736 5,275 0 288 -1024
2022-07-04 02:17:15 GMT 51.844669 21.104965 5,450 359 293 -896
2022-07-04 02:17:12 GMT 51.841225 21.105118 5,475 359 294 -832
2022-07-04 02:17:09 GMT 51.837128 21.105194 5,525 359 296 -832
2022-07-04 02:17:05 GMT 51.830795 21.105478 5,575 359 299 -832
2022-07-04 02:17:00 GMT 51.823627 21.105728 5,675 359 301 -960
2022-07-04 02:16:57 GMT 51.820648 21.105881 5,700 359 302 -1024
2022-07-04 02:16:54 GMT 51.815598 21.106148 5,825 359 307 -960
2022-07-04 02:16:51 GMT 51.810081 21.106415 5,825 359 307 -960
2022-07-04 02:16:48 GMT 51.805527 21.106592 5,875 359 308 -1024
2022-07-04 02:16:45 GMT 51.801098 21.106720 5,925 359 310 -1024
2022-07-04 02:16:42 GMT 51.798580 21.106796 5,950 0 311 -960
2022-07-04 02:16:37 GMT 51.791271 21.107025 6,050 0 314 -960
2022-07-04 02:16:34 GMT 51.786758 21.107101 6,100 0 315 -960
2022-07-04 02:16:27 GMT 51.776779 21.107334 6,200 0 319 -1088
2022-07-04 02:16:23 GMT 51.771351 21.107407 6,600 359 330 -1152
2022-07-04 02:16:16 GMT 51.761307 21.107706 6,400 359 325 -1088
2022-07-04 02:16:13 GMT 51.756218 21.107864 6,450 359 327 -1088
2022-07-04 02:16:07 GMT 51.746155 21.108225 6,575 359 331 -1216
2022-07-04 02:16:04 GMT 51.740532 21.108398 6,650 359 332 -1344
2022-07-04 02:15:59 GMT 51.733932 21.108597 6,750 359 335 -1280
2022-07-04 02:15:56 GMT 51.730148 21.108704 6,800 359 335 -1216
2022-07-04 02:15:53 GMT 51.725189 21.108892 6,875 359 336 -1152
2022-07-04 02:15:50 GMT 51.720291 21.109041 6,925 359 336 -1152
2022-07-04 02:15:46 GMT 51.713997 21.109238 7,000 359 336 -1152
2022-07-04 02:15:43 GMT 51.708755 21.109413 7,075 359 336 -1088
2022-07-04 02:15:36 GMT 51.698818 21.109772 7,200 359 336 -1088
2022-07-04 02:15:32 GMT 51.693100 21.110006 7,250 359 336 -1088
2022-07-04 02:15:26 GMT 51.682945 21.110306 7,375 359 336 -1088
2022-07-04 02:15:23 GMT 51.677032 21.110525 7,475 359 337 -1088
2022-07-04 02:15:19 GMT 51.673050 21.110676 7,475 359 337 -1088
2022-07-04 02:15:15 GMT 51.666794 21.110916 7,575 359 338 -1088
2022-07-04 02:15:12 GMT 51.662045 21.111069 7,675 0 348 -1216
2022-07-04 02:15:06 GMT 51.651058 21.111374 7,775 359 340 -1152
2022-07-04 02:15:02 GMT 51.644485 21.111567 7,850 359 342 -1152
2022-07-04 02:14:55 GMT 51.635651 21.111832 7,950 0 344 -1216
2022-07-04 02:14:52 GMT 51.629700 21.112011 8,025 0 346 -1216
2022-07-04 02:14:45 GMT 51.619030 21.112289 8,175 0 349 -1216
2022-07-04 02:14:41 GMT 51.611675 21.112518 8,275 0 350 -1216
2022-07-04 02:14:37 GMT 51.605713 21.112679 8,325 0 351 -1216
2022-07-04 02:14:33 GMT 51.598618 21.112827 8,450 359 354 -1216
2022-07-04 02:14:30 GMT 51.594589 21.112976 8,475 359 354 -1216
2022-07-04 02:14:25 GMT 51.585938 21.113199 8,575 359 358 -1152
2022-07-04 02:14:19 GMT 51.577194 21.113497 8,675 359 361 -1152
2022-07-04 02:14:15 GMT 51.567867 21.113739 8,800 359 365 -1472
2022-07-04 02:14:09 GMT 51.559814 21.113968 8,925 359 367 -1728
2022-07-04 02:14:04 GMT 51.551342 21.114273 9,050 359 369 -1472
2022-07-04 02:13:59 GMT 51.543613 21.114502 9,150 359 370 -1280
2022-07-04 02:13:54 GMT 51.533661 21.114758 9,275 0 371 -1280
2022-07-04 02:13:50 GMT 51.526531 21.114960 9,375 0 371 -1344
2022-07-04 02:13:43 GMT 51.515732 21.115265 9,500 359 372 -1088
2022-07-04 02:13:40 GMT 51.507797 21.115499 9,575 359 373 -1024
2022-07-04 02:13:35 GMT 51.502045 21.115723 9,675 359 374 -1024
2022-07-04 02:13:32 GMT 51.494038 21.115952 9,725 359 374 -1024
2022-07-04 02:13:29 GMT 51.491383 21.116104 9,750 359 374 -1024
2022-07-04 02:13:26 GMT 51.484680 21.116333 9,800 359 374 -1088
2022-07-04 02:13:23 GMT 51.481140 21.116486 9,850 359 374 -1088
2022-07-04 02:13:19 GMT 51.473373 21.116762 9,925 359 374 -896
2022-07-04 02:13:13 GMT 51.463028 21.117207 9,975 359 374 -448
2022-07-04 02:13:09 GMT 51.456253 21.117504 10,000 359 374 -128
2022-07-04 02:13:05 GMT 51.449020 21.117802 10,000 359 374 0
2022-07-04 02:13:02 GMT 51.445358 21.117950 10,000 359 374 0
2022-07-04 02:12:59 GMT 51.438400 21.118320 10,000 359 374 0
2022-07-04 02:12:53 GMT 51.428055 21.118839 10,000 359 374 0
2022-07-04 02:12:48 GMT 51.420067 21.119232 10,000 359 374 0
2022-07-04 02:12:42 GMT 51.410290 21.119690 10,000 359 374 0
2022-07-04 02:12:38 GMT 51.402969 21.120028 10,000 359 374 0
2022-07-04 02:12:33 GMT 51.393494 21.120399 10,000 359 374 0
2022-07-04 02:12:28 GMT 51.385338 21.120682 10,000 0 375 0
2022-07-04 02:12:22 GMT 51.375378 21.120834 10,000 0 375 0
2022-07-04 02:12:18 GMT 51.367928 21.120758 10,000 0 375 0
2022-07-04 02:12:12 GMT 51.358013 21.120529 10,000 1 375 0
2022-07-04 02:12:07 GMT 51.349136 21.120251 10,000 1 375 0
2022-07-04 02:12:02 GMT 51.340603 21.119995 10,000 1 375 0
2022-07-04 02:11:57 GMT 51.332382 21.119732 10,000 1 375 0
2022-07-04 02:11:52 GMT 51.322678 21.119509 10,000 1 375 0
2022-07-04 02:11:48 GMT 51.315464 21.119232 10,000 1 375 0
2022-07-04 02:11:42 GMT 51.305267 21.119003 10,000 1 375 0
2022-07-04 02:11:37 GMT 51.297272 21.118767 10,000 1 375 0
2022-07-04 02:11:32 GMT 51.286560 21.118469 10,000 1 375 0
2022-07-04 02:11:27 GMT 51.279758 21.118240 10,000 1 375 0
2022-07-04 02:11:21 GMT 51.270027 21.118011 10,000 0 375 0
2022-07-04 02:11:17 GMT 51.262394 21.117783 10,000 0 375 0
2022-07-04 02:11:11 GMT 51.252571 21.117554 10,000 0 375 0
2022-07-04 02:11:06 GMT 51.244217 21.117283 10,000 0 375 0
2022-07-04 02:11:00 GMT 51.233902 21.117020 10,000 0 375 0
2022-07-04 02:10:57 GMT 51.226685 21.116837 10,000 0 375 0
2022-07-04 02:10:53 GMT 51.219818 21.116688 10,000 0 375 0
2022-07-04 02:10:50 GMT 51.216770 21.116638 10,000 0 375 0
2022-07-04 02:10:46 GMT 51.209278 21.116409 10,000 0 374 0
2022-07-04 02:10:43 GMT 51.204762 21.116333 10,000 0 374 0
2022-07-04 02:10:40 GMT 51.199547 21.116180 10,000 0 374 0
2022-07-04 02:10:37 GMT 51.187912 21.115871 10,000 0 374 0
2022-07-04 02:10:34 GMT 51.187912 21.115871 10,000 0 374 0
2022-07-04 02:10:31 GMT 51.181484 21.115723 10,000 0 374 0
2022-07-04 02:10:26 GMT 51.174316 21.115494 10,000 0 374 0
2022-07-04 02:10:20 GMT 51.164680 21.115265 10,000 0 375 0
2022-07-04 02:10:15 GMT 51.156235 21.115055 10,000 0 375 0
2022-07-04 02:10:10 GMT 51.146477 21.114731 10,000 0 375 0
2022-07-04 02:10:06 GMT 51.138748 21.114578 10,000 0 375 0
2022-07-04 02:10:03 GMT 51.133026 21.114426 10,000 1 375 -64
2022-07-04 02:10:00 GMT 51.128632 21.114311 10,000 1 375 -128
2022-07-04 02:09:56 GMT 51.120594 21.114044 10,000 1 374 0
2022-07-04 02:09:50 GMT 51.111603 21.113792 10,000 1 374 0
2022-07-04 02:09:45 GMT 51.103699 21.113586 10,000 1 374 0
2022-07-04 02:09:39 GMT 51.093887 21.113274 10,000 1 374 0
2022-07-04 02:09:35 GMT 51.085602 21.113050 10,000 0 374 0
2022-07-04 02:09:30 GMT 51.075813 21.112823 10,000 1 374 0
2022-07-04 02:09:25 GMT 51.068409 21.112595 10,000 1 374 0
2022-07-04 02:09:19 GMT 51.059006 21.112383 10,000 0 374 0
2022-07-04 02:09:13 GMT 51.047699 21.112011 10,000 1 374 0
2022-07-04 02:09:09 GMT 51.040897 21.111832 10,000 1 374 0
2022-07-04 02:09:05 GMT 51.033730 21.111679 10,000 1 374 0
2022-07-04 02:09:02 GMT 51.029491 21.111526 10,000 1 374 0
2022-07-04 02:08:58 GMT 51.022697 21.111374 10,000 1 374 0
2022-07-04 02:08:55 GMT 51.014923 21.111120 10,000 1 374 0
2022-07-04 02:08:49 GMT 51.006214 21.110916 10,000 0 374 0
2022-07-04 02:08:44 GMT 50.998302 21.110687 10,000 0 374 0
2022-07-04 02:08:39 GMT 50.988621 21.110382 10,000 0 374 0
2022-07-04 02:08:34 GMT 50.980053 21.110229 10,000 0 374 0
2022-07-04 02:08:29 GMT 50.970558 21.109924 10,000 0 374 0
2022-07-04 02:08:24 GMT 50.962830 21.109772 10,000 0 373 0
2022-07-04 02:08:18 GMT 50.953148 21.109543 10,000 0 373 0
2022-07-04 02:08:14 GMT 50.947037 21.109413 10,000 0 373 0
2022-07-04 02:08:11 GMT 50.941647 21.109238 10,000 0 373 0
2022-07-04 02:08:08 GMT 50.935959 21.109116 10,000 0 373 0
2022-07-04 02:08:02 GMT 50.925430 21.108818 10,000 0 373 0
2022-07-04 02:07:58 GMT 50.918335 21.108671 10,000 0 373 0
2022-07-04 02:07:53 GMT 50.909225 21.108448 10,000 0 373 0
2022-07-04 02:07:48 GMT 50.900482 21.108150 10,000 0 373 0
2022-07-04 02:07:43 GMT 50.891418 21.107941 10,000 0 373 0
2022-07-04 02:07:37 GMT 50.882805 21.107712 10,000 0 373 0
2022-07-04 02:07:33 GMT 50.874847 21.107483 10,000 1 373 0
2022-07-04 02:07:27 GMT 50.865738 21.107260 10,000 1 372 0
2022-07-04 02:07:22 GMT 50.856903 21.107038 10,000 1 372 0
2022-07-04 02:07:17 GMT 50.848495 21.106796 10,000 1 372 0
2022-07-04 02:07:13 GMT 50.839966 21.106518 10,000 0 372 0
2022-07-04 02:07:07 GMT 50.830437 21.106262 10,000 1 372 0
2022-07-04 02:07:04 GMT 50.825180 21.106148 10,000 1 372 0
2022-07-04 02:07:01 GMT 50.820236 21.105997 10,000 0 372 0
2022-07-04 02:06:57 GMT 50.813210 21.105804 10,000 0 372 0
2022-07-04 02:06:51 GMT 50.801331 21.105478 10,000 0 372 0
2022-07-04 02:06:47 GMT 50.797012 21.105347 10,000 0 372 0
2022-07-04 02:06:44 GMT 50.790306 21.105194 10,000 0 372 0
2022-07-04 02:06:40 GMT 50.784073 21.105034 10,000 0 371 0
2022-07-04 02:06:37 GMT 50.778484 21.104889 10,000 0 371 0
2022-07-04 02:06:31 GMT 50.769497 21.104660 10,000 0 371 0
2022-07-04 02:06:27 GMT 50.760468 21.104431 10,000 0 371 0
2022-07-04 02:06:24 GMT 50.755344 21.104279 10,000 0 371 0
2022-07-04 02:06:20 GMT 50.750458 21.104126 10,000 0 371 0
2022-07-04 02:06:17 GMT 50.744751 21.103994 10,000 0 371 0
2022-07-04 02:06:14 GMT 50.738400 21.103821 10,000 0 371 0
2022-07-04 02:06:11 GMT 50.733261 21.103697 10,000 0 371 0
2022-07-04 02:06:06 GMT 50.725204 21.103474 10,000 0 371 0
2022-07-04 02:06:03 GMT 50.720810 21.103327 10,000 0 371 0
2022-07-04 02:05:59 GMT 50.712425 21.103134 10,000 1 371 -64
2022-07-04 02:05:56 GMT 50.708267 21.103029 10,000 1 371 -64
2022-07-04 02:05:50 GMT 50.698460 21.102753 10,000 1 371 0
2022-07-04 02:05:46 GMT 50.691010 21.102524 10,000 1 371 0
2022-07-04 02:05:40 GMT 50.679840 21.102213 10,000 1 371 -64
2022-07-04 02:05:35 GMT 50.673294 21.101990 10,000 1 371 -64
2022-07-04 02:05:30 GMT 50.663956 21.101702 10,000 1 371 0
2022-07-04 02:05:26 GMT 50.656082 21.101484 10,000 1 372 -64
2022-07-04 02:05:19 GMT 50.644272 21.101099 10,000 1 372 -64
2022-07-04 02:05:15 GMT 50.638870 21.100979 10,000 1 372 -64
2022-07-04 02:05:11 GMT 50.629898 21.100689 10,000 1 372 0
2022-07-04 02:05:08 GMT 50.625511 21.100578 10,000 1 373 0
2022-07-04 02:05:05 GMT 50.621090 21.100431 10,000 1 373 64
2022-07-04 02:04:59 GMT 50.609917 21.100134 10,000 0 373 -64
2022-07-04 02:04:55 GMT 50.603958 21.099985 10,000 0 372 -128
2022-07-04 02:04:51 GMT 50.598038 21.099821 10,025 0 370 64
2022-07-04 02:04:48 GMT 50.589340 21.099606 10,000 0 368 256
2022-07-04 02:04:44 GMT 50.586090 21.099531 10,000 0 367 256
2022-07-04 02:04:39 GMT 50.575935 21.099243 9,975 0 366 64
2022-07-04 02:04:35 GMT 50.569370 21.099094 9,975 0 366 0
2022-07-04 02:04:29 GMT 50.559494 21.098883 10,000 0 367 -192
2022-07-04 02:04:25 GMT 50.546768 21.098520 10,025 0 368 -576
2022-07-04 02:04:22 GMT 50.546768 21.098520 10,025 0 368 -576
2022-07-04 02:04:17 GMT 50.538181 21.098352 10,100 0 369 -1536
2022-07-04 02:04:14 GMT 50.534595 21.098204 10,150 0 369 -1536
2022-07-04 02:04:11 GMT 50.528824 21.098055 10,250 0 371 -1600
2022-07-04 02:04:08 GMT 50.524063 21.097942 10,450 0 372 -1536
2022-07-04 02:04:04 GMT 50.516857 21.097759 10,425 0 372 -1536
2022-07-04 02:04:00 GMT 50.509918 21.097582 10,550 0 373 -1536
2022-07-04 02:03:57 GMT 50.503685 21.097462 10,625 0 374 -1536
2022-07-04 02:03:54 GMT 50.500122 21.097364 10,675 0 375 -1472
2022-07-04 02:03:51 GMT 50.494236 21.097239 10,775 0 376 -1536
2022-07-04 02:03:48 GMT 50.481899 21.096869 10,900 0 377 -1472
2022-07-04 02:03:44 GMT 50.481899 21.096869 10,925 0 378 -1472
2022-07-04 02:03:40 GMT 50.476639 21.096794 11,075 0 381 -1536
2022-07-04 02:03:37 GMT 50.468170 21.096569 11,125 0 382 -1600
2022-07-04 02:03:34 GMT 50.464581 21.096497 11,250 1 387 -1728
2022-07-04 02:03:31 GMT 50.459152 21.096352 11,700 1 392 -1792
2022-07-04 02:03:27 GMT 50.452377 21.096134 11,375 1 387 -1728
2022-07-04 02:03:24 GMT 50.447250 21.095991 11,475 1 389 -1728
2022-07-04 02:03:21 GMT 50.439789 21.095774 11,575 1 390 -1728
2022-07-04 02:03:17 GMT 50.435303 21.095701 11,750 1 393 -1792
2022-07-04 02:03:13 GMT 50.427711 21.095457 12,200 1 397 -1984
2022-07-04 02:03:10 GMT 50.421799 21.095308 12,200 1 397 -1984
2022-07-04 02:03:07 GMT 50.416122 21.095196 12,025 1 396 -1984
2022-07-04 02:03:04 GMT 50.410534 21.095013 12,125 1 397 -1984
2022-07-04 02:03:01 GMT 50.398197 21.094715 12,300 0 399 -1984
2022-07-04 02:02:57 GMT 50.398197 21.094715 12,300 1 398 -1984
2022-07-04 02:02:53 GMT 50.390030 21.094473 12,650 1 401 -1984
2022-07-04 02:02:50 GMT 50.385208 21.094343 12,550 1 400 -1984
2022-07-04 02:02:47 GMT 50.378784 21.094194 12,650 1 401 -1984
2022-07-04 02:02:41 GMT 50.366634 21.093899 12,875 0 403 -1984
2022-07-04 02:02:37 GMT 50.360256 21.093676 13,150 1 405 -1984
2022-07-04 02:02:33 GMT 50.353775 21.093533 13,100 1 404 -2048
2022-07-04 02:02:30 GMT 50.341778 21.093157 13,225 1 405 -1984
2022-07-04 02:02:27 GMT 50.341778 21.093157 13,350 1 406 -1984
2022-07-04 02:02:24 GMT 50.334961 21.092955 13,500 1 407 -1984
2022-07-04 02:02:21 GMT 50.328835 21.092785 13,600 1 407 -1984
2022-07-04 02:02:18 GMT 50.324799 21.092667 13,650 1 407 -1984
2022-07-04 02:02:15 GMT 50.319897 21.092487 13,700 1 408 -1984
2022-07-04 02:02:12 GMT 50.314041 21.092304 13,875 1 408 -2112
2022-07-04 02:02:09 GMT 50.307404 21.092089 13,950 1 408 -2048
2022-07-04 02:02:06 GMT 50.302395 21.091969 14,150 0 408 -2176
2022-07-04 02:02:02 GMT 50.295181 21.091726 14,150 0 408 -2176
2022-07-04 02:01:59 GMT 50.288589 21.091581 14,275 0 408 -2176
2022-07-04 02:01:55 GMT 50.281818 21.091375 14,425 0 408 -2240
2022-07-04 02:01:52 GMT 50.271297 21.091152 14,725 0 409 -2240
2022-07-04 02:01:49 GMT 50.271297 21.091152 14,700 0 409 -2240
2022-07-04 02:01:46 GMT 50.264465 21.091003 14,750 0 409 -2240
2022-07-04 02:01:43 GMT 50.259193 21.090855 14,850 0 409 -2240
2022-07-04 02:01:39 GMT 50.252537 21.090706 15,075 0 411 -2240
2022-07-04 02:01:36 GMT 50.244644 21.090570 15,150 0 410 -2240
2022-07-04 02:01:33 GMT 50.239872 21.090410 15,225 0 411 -2240
2022-07-04 02:01:30 GMT 50.232559 21.090208 15,475 0 411 -2240
2022-07-04 02:01:25 GMT 50.224869 21.090063 15,525 0 412 -2240
2022-07-04 02:01:22 GMT 50.217251 21.089815 15,875 0 413 -2304
2022-07-04 02:01:19 GMT 50.213699 21.089775 15,750 0 413 -2240
2022-07-04 02:01:15 GMT 50.205425 21.089520 15,950 0 414 -2304
2022-07-04 02:01:12 GMT 50.200562 21.089413 16,050 0 414 -2304
2022-07-04 02:01:09 GMT 50.188667 21.089148 16,725 0 419 -2176
2022-07-04 02:01:06 GMT 50.188667 21.089148 16,300 0 415 -2240
2022-07-04 02:01:03 GMT 50.181637 21.088999 16,375 0 416 -2240
2022-07-04 02:01:00 GMT 50.176437 21.088907 16,525 0 417 -2240
2022-07-04 02:00:57 GMT 50.170742 21.088776 16,650 0 418 -2240
2022-07-04 02:00:54 GMT 50.166504 21.088692 18,125 0 421 -2176
2022-07-04 02:00:51 GMT 50.159500 21.088474 17,000 0 419 -2176
2022-07-04 02:00:47 GMT 50.150803 21.088257 17,000 0 419 -2176
2022-07-04 02:00:44 GMT 50.147049 21.088182 17,075 0 420 -2240
2022-07-04 02:00:41 GMT 50.140018 21.088034 17,250 0 420 -2240
2022-07-04 02:00:38 GMT 50.134415 21.087894 17,400 0 420 -2240
2022-07-04 02:00:35 GMT 50.129543 21.087736 17,575 0 421 -2176
2022-07-04 02:00:32 GMT 50.123520 21.087606 17,575 0 421 -2176
2022-07-04 02:00:29 GMT 50.109924 21.087317 17,650 0 421 -2176
2022-07-04 02:00:26 GMT 50.109924 21.087317 17,750 0 421 -2176
2022-07-04 02:00:23 GMT 50.106129 21.087292 17,950 0 421 -2176
2022-07-04 02:00:20 GMT 50.100311 21.087143 17,925 0 421 -2176
2022-07-04 02:00:17 GMT 50.093513 21.087069 18,075 0 421 -2176
2022-07-04 02:00:14 GMT 50.085434 21.086956 18,200 0 421 -2176
2022-07-04 02:00:10 GMT 50.079872 21.086845 18,325 0 421 -2176
2022-07-04 02:00:06 GMT 50.072937 21.086773 18,525 0 422 -2176
2022-07-04 02:00:03 GMT 50.066837 21.086699 18,525 0 422 -2176
2022-07-04 01:59:59 GMT 50.059845 21.086594 18,675 0 422 -2176
2022-07-04 01:59:56 GMT 50.053013 21.086475 18,850 0 423 -2240
2022-07-04 01:59:53 GMT 50.046589 21.086401 18,925 0 424 -2240
2022-07-04 01:59:49 GMT 50.040436 21.086306 19,175 0 434 -2240
2022-07-04 01:59:46 GMT 50.033554 21.086252 19,175 0 426 -2240
2022-07-04 01:59:43 GMT 50.027500 21.086178 19,375 0 427 -2240
2022-07-04 01:59:40 GMT 50.020386 21.086088 19,575 357 459 0
2022-07-04 01:59:37 GMT 50.014252 21.085943 19,575 0 429 -2176
2022-07-04 01:59:34 GMT 50.008648 21.085880 19,700 0 430 -2176
2022-07-04 01:59:31 GMT 49.996353 21.085728 19,775 0 431 -2176
2022-07-04 01:59:28 GMT 49.996353 21.085728 19,875 0 431 -2176
2022-07-04 01:59:25 GMT 49.993332 21.085733 19,975 0 432 -2240
2022-07-04 01:59:22 GMT 49.985733 21.085583 20,125 0 433 -2240
2022-07-04 01:59:19 GMT 49.979919 21.085510 20,175 0 434 -2240
2022-07-04 01:59:16 GMT 49.973511 21.085365 20,325 0 436 -2240
2022-07-04 01:59:13 GMT 49.966644 21.085293 20,450 0 436 -2240
2022-07-04 01:59:10 GMT 49.960934 21.085138 20,550 0 437 -2240
2022-07-04 01:59:07 GMT 49.956253 21.085077 20,675 0 438 -2240
2022-07-04 01:59:04 GMT 49.949062 21.084915 20,800 0 439 -2240
2022-07-04 01:59:01 GMT 49.942776 21.084768 20,900 1 440 -2240
2022-07-04 01:58:58 GMT 49.938583 21.084642 21,025 1 440 -2240
2022-07-04 01:58:55 GMT 49.932175 21.084427 21,150 1 441 -2240
2022-07-04 01:58:52 GMT 49.926682 21.084282 21,150 1 442 -2240
2022-07-04 01:58:49 GMT 49.917389 21.083920 21,325 1 443 -2176
2022-07-04 01:58:46 GMT 49.906326 21.083431 25,275 5 443 -2240
2022-07-04 01:58:43 GMT 49.906326 21.083431 21,600 1 444 -2112
2022-07-04 01:58:40 GMT 49.901394 21.083208 21,600 1 444 -2112
2022-07-04 01:58:37 GMT 49.892303 21.082764 21,925 2 445 -2624
2022-07-04 01:58:34 GMT 49.886913 21.082466 21,900 2 445 -2048
2022-07-04 01:58:31 GMT 49.880676 21.082113 21,975 2 445 -2176
2022-07-04 01:58:28 GMT 49.875824 21.081753 22,150 2 445 -2816
2022-07-04 01:58:25 GMT 49.867409 21.081131 22,350 3 445 -3264
2022-07-04 01:58:22 GMT 49.864288 21.080908 22,425 3 443 -3584
2022-07-04 01:58:19 GMT 49.857147 21.080235 22,625 3 445 -3584
2022-07-04 01:58:16 GMT 49.851196 21.079657 22,775 4 444 -3520
2022-07-04 01:58:13 GMT 49.840176 21.078310 22,950 4 444 -3456
2022-07-04 01:58:10 GMT 49.840176 21.078310 23,400 6 443 -3584
2022-07-04 01:58:07 GMT 49.833706 21.077419 23,350 5 444 -3520
2022-07-04 01:58:04 GMT 49.824951 21.076082 23,475 6 443 -3584
2022-07-04 01:58:01 GMT 49.819645 21.075191 23,700 6 441 -3840
2022-07-04 01:57:58 GMT 49.813129 21.074080 23,950 7 440 -3840
2022-07-04 01:57:55 GMT 49.809036 21.073296 24,075 7 440 -3584
2022-07-04 01:57:52 GMT 49.801941 21.071777 24,425 8 440 -2560
2022-07-04 01:57:48 GMT 49.786148 21.068308 24,425 8 441 -2368
2022-07-04 01:57:45 GMT 49.786148 21.068308 24,875 8 442 -2304
2022-07-04 01:57:42 GMT 49.781799 21.067295 24,700 8 442 -2432
2022-07-04 01:57:39 GMT 49.768440 21.064280 24,950 7 443 -2624
2022-07-04 01:57:35 GMT 49.768440 21.064280 25,175 5 444 -2240
2022-07-04 01:57:32 GMT 49.761108 21.062815 25,050 6 443 -2432
2022-07-04 01:57:29 GMT 49.756943 21.062019 25,125 6 443 -2304
2022-07-04 01:57:25 GMT 49.749023 21.060719 25,275 4 444 -2304
2022-07-04 01:57:22 GMT 49.741997 21.059826 25,475 0 444 -2752
2022-07-04 01:57:19 GMT 49.736504 21.059456 25,475 0 444 -2752
2022-07-04 01:57:16 GMT 49.724445 21.059528 25,800 358 443 -2560
2022-07-04 01:57:13 GMT 49.724445 21.059528 25,875 357 443 -2496
2022-07-04 01:57:10 GMT 49.715378 21.060213 26,225 357 444 -2432
2022-07-04 01:57:07 GMT 49.710060 21.060642 26,100 357 444 -2496
2022-07-04 01:57:04 GMT 49.703964 21.061163 26,225 357 444 -2432
2022-07-04 01:57:01 GMT 49.698120 21.061659 26,325 357 445 -2432
2022-07-04 01:56:58 GMT 49.692184 21.062201 26,450 357 446 -2368
2022-07-04 01:56:55 GMT 49.685017 21.062796 26,850 357 448 -2368
2022-07-04 01:56:52 GMT 49.680687 21.063166 26,775 357 447 -2368
2022-07-04 01:56:49 GMT 49.674171 21.063761 26,800 357 448 -2368
2022-07-04 01:56:45 GMT 49.663055 21.064766 27,000 357 449 -2304
2022-07-04 01:56:42 GMT 49.657791 21.065201 27,150 357 450 -2304
2022-07-04 01:56:39 GMT 49.653717 21.065634 27,175 357 450 -2304
2022-07-04 01:56:35 GMT 49.644516 21.066433 27,425 357 452 -2240
2022-07-04 01:56:32 GMT 49.639435 21.066935 27,425 357 452 -2240
2022-07-04 01:56:29 GMT 49.632275 21.067619 27,550 357 453 -2240
2022-07-04 01:56:25 GMT 49.624969 21.068308 27,750 357 455 -2432
2022-07-04 01:56:22 GMT 49.617424 21.069105 27,875 357 455 -2432
2022-07-04 01:56:19 GMT 49.611324 21.069698 28,150 357 458 -2176
2022-07-04 01:56:16 GMT 49.603821 21.070404 28,075 357 458 -2240
2022-07-04 01:56:12 GMT 49.596428 21.071182 28,250 357 460 -2176
2022-07-04 01:56:09 GMT 49.588097 21.072001 28,525 357 463 -2112
2022-07-04 01:56:06 GMT 49.583954 21.072428 28,475 357 463 -2176
2022-07-04 01:56:03 GMT 49.575668 21.073296 28,875 357 463 -2112
2022-07-04 01:55:58 GMT 49.566681 21.074154 28,700 357 463 -1920
2022-07-04 01:55:55 GMT 49.561001 21.074747 28,775 357 464 -1536
2022-07-04 01:55:52 GMT 49.554108 21.075464 29,000 357 463 0
2022-07-04 01:55:49 GMT 49.538452 21.077126 28,975 357 464 -832
2022-07-04 01:55:45 GMT 49.538452 21.077126 28,975 357 464 -384
2022-07-04 01:55:41 GMT 49.530899 21.077921 29,000 357 464 -192
2022-07-04 01:55:38 GMT 49.523621 21.078682 29,000 357 464 0
2022-07-04 01:55:32 GMT 49.503323 21.080908 29,000 357 464 -64
2022-07-04 01:55:29 GMT 49.503323 21.080908 29,000 357 464 0
2022-07-04 01:55:26 GMT 49.498856 21.081352 29,000 357 464 0
2022-07-04 01:55:23 GMT 49.489918 21.082317 29,000 357 463 0
2022-07-04 01:55:18 GMT 49.479534 21.083431 29,000 357 463 0
2022-07-04 01:55:13 GMT 49.471161 21.084354 29,000 357 463 0
2022-07-04 01:55:10 GMT 49.464359 21.085066 29,000 357 463 0
2022-07-04 01:55:07 GMT 49.457981 21.085733 29,000 357 463 0
2022-07-04 01:55:02 GMT 49.446762 21.086956 29,000 357 463 0
2022-07-04 01:54:58 GMT 49.437824 21.087887 29,000 357 463 0
2022-07-04 01:54:54 GMT 49.429680 21.088776 29,000 357 462 0
2022-07-04 01:54:51 GMT 49.424789 21.089314 29,000 357 462 0
2022-07-04 01:54:48 GMT 49.418152 21.090017 29,000 357 462 0
2022-07-04 01:54:45 GMT 49.411896 21.090643 29,000 357 462 0
2022-07-04 01:54:42 GMT 49.402817 21.091637 29,000 357 462 0
2022-07-04 01:54:37 GMT 49.391602 21.092834 29,000 357 462 0
2022-07-04 01:54:34 GMT 49.386017 21.093397 29,000 356 460 0
2022-07-04 01:54:31 GMT 49.381897 21.093891 29,000 357 461 0
2022-07-04 01:54:27 GMT 49.372604 21.094833 29,000 357 461 0
2022-07-04 01:54:24 GMT 49.362991 21.095863 29,000 357 461 0
2022-07-04 01:54:21 GMT 49.359943 21.096207 29,000 357 461 0
2022-07-04 01:54:17 GMT 49.351471 21.097075 29,000 356 461 0
2022-07-04 01:54:13 GMT 49.340881 21.098257 29,000 356 461 0
2022-07-04 01:54:10 GMT 49.336670 21.098680 29,000 356 461 0
2022-07-04 01:54:06 GMT 49.321724 21.100327 29,000 356 461 0
2022-07-04 01:54:03 GMT 49.321724 21.100327 29,000 356 460 0
2022-07-04 01:54:00 GMT 49.316231 21.100906 29,000 356 460 0
2022-07-04 01:53:57 GMT 49.307991 21.101845 29,000 356 460 0
2022-07-04 01:53:54 GMT 49.300728 21.102640 29,000 356 460 0
2022-07-04 01:53:51 GMT 49.294098 21.103329 29,000 356 460 0
2022-07-04 01:53:47 GMT 49.286160 21.104158 29,000 357 460 0
2022-07-04 01:53:44 GMT 49.280571 21.104809 29,000 357 460 0
2022-07-04 01:53:41 GMT 49.275032 21.105387 29,000 357 460 0
2022-07-04 01:53:38 GMT 49.268375 21.106110 29,000 357 459 0
2022-07-04 01:53:35 GMT 49.262054 21.106779 29,000 357 459 0
2022-07-04 01:53:32 GMT 49.256413 21.107410 29,000 357 459 0
2022-07-04 01:53:29 GMT 49.249241 21.108133 29,000 357 459 0
2022-07-04 01:53:26 GMT 49.243332 21.108822 29,000 356 459 0
2022-07-04 01:53:23 GMT 49.236626 21.109507 29,000 356 459 0
2022-07-04 01:53:20 GMT 49.230286 21.110229 29,000 356 459 0
2022-07-04 01:53:17 GMT 49.214951 21.111849 29,000 356 459 0
2022-07-04 01:53:14 GMT 49.214951 21.111849 29,000 356 459 0
2022-07-04 01:53:10 GMT 49.207951 21.112616 29,000 356 459 0
2022-07-04 01:53:06 GMT 49.200546 21.113411 29,000 356 458 -128
2022-07-04 01:53:03 GMT 49.193844 21.114134 33,200 356 458 -64
2022-07-04 01:53:00 GMT 49.188538 21.114712 33,200 356 458 0
2022-07-04 01:52:56 GMT 49.179413 21.115723 29,000 356 458 0
2022-07-04 01:52:53 GMT 49.170959 21.116638 29,000 356 458 0
2022-07-04 01:52:50 GMT 49.166565 21.117168 29,000 356 458 0
2022-07-04 01:52:47 GMT 49.154297 21.118540 29,000 356 458 0
2022-07-04 01:52:44 GMT 49.154297 21.118540 29,000 356 458 0
2022-07-04 01:52:40 GMT 49.145988 21.119410 29,000 356 458 0
2022-07-04 01:52:37 GMT 49.138634 21.120205 29,000 356 458 0
2022-07-04 01:52:34 GMT 49.133148 21.120792 29,000 356 457 0
2022-07-04 01:52:31 GMT 49.124176 21.121778 29,000 356 457 0
2022-07-04 01:52:28 GMT 49.120789 21.122202 29,000 356 457 0
2022-07-04 01:52:25 GMT 49.114193 21.122877 29,000 356 457 0
2022-07-04 01:52:22 GMT 49.107742 21.123610 29,000 356 457 0
2022-07-04 01:52:19 GMT 49.102089 21.124252 29,000 356 457 0
2022-07-04 01:52:15 GMT 49.092407 21.125299 29,000 356 457 0
2022-07-04 01:52:10 GMT 49.080872 21.126568 29,000 356 457 0
2022-07-04 01:52:05 GMT 49.071442 21.127554 29,000 356 457 0
2022-07-04 01:52:02 GMT 49.064198 21.128370 29,000 356 457 0
2022-07-04 01:51:58 GMT 49.057663 21.129032 29,000 356 457 0
2022-07-04 01:51:55 GMT 49.049438 21.129963 29,000 356 457 0
2022-07-04 01:51:52 GMT 49.035847 21.131407 29,000 356 456 0
2022-07-04 01:51:48 GMT 49.035847 21.131407 29,000 356 456 0
2022-07-04 01:51:44 GMT 49.027451 21.132343 29,000 356 456 0
2022-07-04 01:51:41 GMT 49.021973 21.132925 29,000 356 456 0
2022-07-04 01:51:38 GMT 49.016388 21.133575 29,000 356 456 0
2022-07-04 01:51:35 GMT 49.004150 21.134878 29,000 356 456 0
2022-07-04 01:51:32 GMT 49.004150 21.134878 29,000 356 456 0
2022-07-04 01:51:29 GMT 48.996555 21.135744 29,000 356 455 0
2022-07-04 01:51:26 GMT 48.989044 21.136568 29,000 356 455 0
2022-07-04 01:51:23 GMT 48.984558 21.137060 29,000 356 455 0
2022-07-04 01:51:19 GMT 48.973846 21.138260 29,000 356 455 0
2022-07-04 01:51:14 GMT 48.966064 21.139141 29,000 356 455 0
2022-07-04 01:51:11 GMT 48.959793 21.139877 29,000 356 455 0
2022-07-04 01:51:08 GMT 48.952332 21.140659 29,000 356 455 0
2022-07-04 01:51:05 GMT 48.944595 21.141569 29,000 356 455 0
2022-07-04 01:51:02 GMT 48.939423 21.142132 29,000 356 454 0
2022-07-04 01:50:58 GMT 48.931458 21.142977 29,000 356 454 0
2022-07-04 01:50:55 GMT 48.924866 21.143694 29,000 356 454 0
2022-07-04 01:50:52 GMT 48.918442 21.144417 29,000 356 454 0
2022-07-04 01:50:49 GMT 48.912483 21.145067 29,000 356 454 0
2022-07-04 01:50:46 GMT 48.906235 21.145723 29,000 356 454 0
2022-07-04 01:50:43 GMT 48.899734 21.146427 29,000 356 454 0
2022-07-04 01:50:40 GMT 48.894608 21.147018 29,000 356 454 0
2022-07-04 01:50:37 GMT 48.888371 21.147671 29,000 356 455 -64
2022-07-04 01:50:34 GMT 48.875195 21.149115 29,000 356 454 0
2022-07-04 01:50:31 GMT 48.875195 21.149115 29,000 356 454 64
2022-07-04 01:50:28 GMT 48.867794 21.149910 29,000 356 454 128
2022-07-04 01:50:25 GMT 48.863434 21.150372 29,000 356 454 64
2022-07-04 01:50:22 GMT 48.855690 21.151211 29,000 356 455 64
2022-07-04 01:50:19 GMT 48.848831 21.151920 29,000 356 455 -64
2022-07-04 01:50:16 GMT 48.842468 21.152624 29,000 356 455 0
2022-07-04 01:50:13 GMT 48.835922 21.153400 29,000 356 455 -64
2022-07-04 01:50:09 GMT 48.828323 21.154245 29,000 356 455 0
2022-07-04 01:50:06 GMT 48.821892 21.154898 29,000 356 455 0
2022-07-04 01:50:03 GMT 48.815933 21.155621 29,000 356 455 0
2022-07-04 01:50:00 GMT 48.811478 21.156076 29,000 356 455 0
2022-07-04 01:49:57 GMT 48.802994 21.156994 29,000 356 455 0
2022-07-04 01:49:54 GMT 48.796894 21.157644 29,000 356 455 0
2022-07-04 01:49:51 GMT 48.788361 21.158611 29,000 356 455 0
2022-07-04 01:49:47 GMT 48.782139 21.159307 29,000 356 455 0
2022-07-04 01:49:43 GMT 48.772873 21.160318 29,000 356 455 0
2022-07-04 01:49:40 GMT 48.768585 21.160795 29,000 356 455 0
2022-07-04 01:49:36 GMT 48.760391 21.161711 29,000 356 455 0
2022-07-04 01:49:32 GMT 48.750549 21.162767 29,000 356 455 0
2022-07-04 01:49:28 GMT 48.741451 21.163860 29,000 356 456 0
2022-07-04 01:49:22 GMT 48.728348 21.165373 29,000 356 456 0
2022-07-04 01:49:17 GMT 48.717636 21.166639 29,000 356 457 0
2022-07-04 01:49:14 GMT 48.712509 21.167204 29,000 356 456 0
2022-07-04 01:49:11 GMT 48.707466 21.167835 29,000 356 456 0
2022-07-04 01:49:08 GMT 48.701088 21.168558 29,000 356 456 0
2022-07-04 01:49:05 GMT 48.692616 21.169571 29,000 356 456 0
2022-07-04 01:49:01 GMT 48.686146 21.170364 29,000 356 456 0
2022-07-04 01:48:56 GMT 48.675301 21.171665 29,000 356 457 0
2022-07-04 01:48:53 GMT 48.668316 21.172461 29,000 356 457 0
2022-07-04 01:48:50 GMT 48.663940 21.172977 29,000 356 457 0
2022-07-04 01:48:46 GMT 48.653046 21.174246 29,000 356 457 0
2022-07-04 01:48:43 GMT 48.647881 21.174919 29,000 356 457 0
2022-07-04 01:48:40 GMT 48.642975 21.175444 29,000 356 457 0
2022-07-04 01:48:36 GMT 48.632519 21.176725 29,000 356 458 0
2022-07-04 01:48:31 GMT 48.621780 21.177979 29,000 356 458 0
2022-07-04 01:48:26 GMT 48.613895 21.178894 29,000 356 458 0
2022-07-04 01:48:23 GMT 48.604259 21.180050 29,000 356 458 0
2022-07-04 01:48:20 GMT 48.599075 21.180655 29,000 356 458 0
2022-07-04 01:48:15 GMT 48.589176 21.181786 29,000 356 459 0
2022-07-04 01:48:12 GMT 48.577770 21.183086 29,000 356 459 0
2022-07-04 01:48:09 GMT 48.577770 21.183086 29,000 356 459 0
2022-07-04 01:48:06 GMT 48.570419 21.183966 29,000 356 459 0
2022-07-04 01:48:02 GMT 48.561199 21.185038 29,000 356 459 0
2022-07-04 01:47:59 GMT 48.555752 21.185616 29,000 356 459 0
2022-07-04 01:47:55 GMT 48.546432 21.186710 29,000 356 460 0
2022-07-04 01:47:52 GMT 48.540112 21.187424 29,000 356 460 0
2022-07-04 01:47:49 GMT 48.534897 21.188002 29,000 356 460 0
2022-07-04 01:47:45 GMT 48.524323 21.189247 29,000 356 460 0
2022-07-04 01:47:40 GMT 48.513474 21.190445 29,000 356 460 64
2022-07-04 01:47:35 GMT 48.504917 21.191399 29,000 356 461 0
2022-07-04 01:47:32 GMT 48.496677 21.192339 29,000 356 461 0
2022-07-04 01:47:29 GMT 48.483875 21.193783 29,000 356 461 0
2022-07-04 01:47:25 GMT 48.483875 21.193783 29,000 356 461 0
2022-07-04 01:47:22 GMT 48.476074 21.194670 29,000 356 461 0
2022-07-04 01:47:19 GMT 48.470215 21.195374 29,000 356 461 0
2022-07-04 01:47:15 GMT 48.462418 21.196241 29,000 356 461 -64
2022-07-04 01:47:12 GMT 48.455978 21.196993 29,000 356 461 -64
2022-07-04 01:47:09 GMT 48.448380 21.197838 29,000 356 461 -64
2022-07-04 01:47:05 GMT 48.440071 21.198771 29,000 356 461 0
2022-07-04 01:47:02 GMT 48.434006 21.199457 29,000 356 461 0
2022-07-04 01:46:59 GMT 48.414322 21.201571 29,000 356 461 -64
2022-07-04 01:46:53 GMT 48.414322 21.201571 29,000 356 461 -64
2022-07-04 01:46:49 GMT 48.405396 21.202557 29,000 356 461 -64
2022-07-04 01:46:44 GMT 48.397156 21.203472 29,025 356 461 -64
2022-07-04 01:46:41 GMT 48.390865 21.204119 29,025 356 461 -64
2022-07-04 01:46:38 GMT 48.383324 21.204914 29,025 356 460 0
2022-07-04 01:46:34 GMT 48.366440 21.206713 29,025 357 460 64
2022-07-04 01:46:31 GMT 48.366440 21.206713 29,000 357 459 64
2022-07-04 01:46:28 GMT 48.361443 21.207298 29,000 357 459 64
2022-07-04 01:46:24 GMT 48.354694 21.207951 29,000 356 458 0
2022-07-04 01:46:21 GMT 48.346409 21.208891 29,000 356 458 0
2022-07-04 01:46:18 GMT 48.340683 21.209469 29,000 356 458 0
2022-07-04 01:46:13 GMT 48.331924 21.210375 29,000 356 457 -64
2022-07-04 01:46:10 GMT 48.323410 21.211348 29,000 356 456 64
2022-07-04 01:46:07 GMT 48.318989 21.211853 29,000 356 456 128
2022-07-04 01:46:04 GMT 48.310188 21.213009 29,000 353 455 64
2022-07-04 01:46:00 GMT 48.302418 21.214600 29,000 350 455 64
2022-07-04 01:45:57 GMT 48.297318 21.216007 29,000 341 452 0
2022-07-04 01:45:54 GMT 48.290684 21.218504 29,000 343 453 0
2022-07-04 01:45:51 GMT 48.284409 21.221500 29,000 339 452 0
2022-07-04 01:45:48 GMT 48.277863 21.225445 29,000 327 450 -128
2022-07-04 01:45:43 GMT 48.270355 21.230938 29,000 324 448 0
2022-07-04 01:45:40 GMT 48.263168 21.237347 29,000 326 449 -64
2022-07-04 01:45:36 GMT 48.258144 21.242498 29,000 324 448 0
2022-07-04 01:45:33 GMT 48.252319 21.249531 29,000 319 447 64
2022-07-04 01:45:30 GMT 48.247066 21.256809 29,000 313 447 64
2022-07-04 01:45:27 GMT 48.243393 21.262560 29,000 229 442 0
2022-07-04 01:45:23 GMT 48.237103 21.274014 29,000 306 446 64
2022-07-04 01:45:20 GMT 48.234833 21.278828 29,000 302 445 0
2022-07-04 01:45:17 GMT 48.231308 21.287138 29,000 300 445 -64
2022-07-04 01:45:12 GMT 48.227234 21.298758 29,000 295 444 -64
2022-07-04 01:45:09 GMT 48.224113 21.309717 29,000 288 443 0
2022-07-04 01:45:06 GMT 48.222160 21.318464 29,000 288 443 0
2022-07-04 01:45:02 GMT 48.220505 21.327492 29,000 283 442 64
2022-07-04 01:44:59 GMT 48.219040 21.338055 29,000 279 441 64
2022-07-04 01:44:56 GMT 48.218063 21.351278 29,000 276 441 64
2022-07-04 01:44:52 GMT 48.217831 21.358505 29,000 271 441 0
2022-07-04 01:44:48 GMT 48.218296 21.375635 29,000 265 440 0
2022-07-04 01:44:45 GMT 48.218575 21.378962 29,000 263 439 0
2022-07-04 01:44:40 GMT 48.220669 21.395947 29,000 256 439 0
2022-07-04 01:44:36 GMT 48.223160 21.408480 29,000 251 439 -64
2022-07-04 01:44:32 GMT 48.229469 21.429773 29,000 246 439 0
2022-07-04 01:44:28 GMT 48.229469 21.429773 29,000 236 440 0
2022-07-04 01:44:25 GMT 48.232040 21.436440 29,000 236 440 0
2022-07-04 01:44:22 GMT 48.235748 21.444889 29,000 234 441 0
2022-07-04 01:44:18 GMT 48.240780 21.454493 29,000 205 446 0
2022-07-04 01:44:15 GMT 48.244995 21.461369 29,000 218 443 0
2022-07-04 01:44:10 GMT 48.253510 21.473061 29,000 219 443 0
2022-07-04 01:44:06 GMT 48.259415 21.479679 29,000 215 444 0
2022-07-04 01:43:59 GMT 48.271225 21.490314 29,000 205 446 0
2022-07-04 01:43:55 GMT 48.278275 21.495104 29,000 202 447 0
2022-07-04 01:43:49 GMT 48.290222 21.501160 29,000 192 451 0
2022-07-04 01:43:46 GMT 48.297867 21.503765 29,000 191 451 0
2022-07-04 01:43:41 GMT 48.315445 21.506371 29,000 184 452 0
2022-07-04 01:43:38 GMT 48.315445 21.506371 29,000 177 454 0
2022-07-04 01:43:35 GMT 48.318848 21.506388 29,000 177 454 0
2022-07-04 01:43:31 GMT 48.328251 21.505447 29,000 170 457 128
2022-07-04 01:43:28 GMT 48.335423 21.503859 29,000 168 458 128
2022-07-04 01:43:25 GMT 48.340775 21.502195 29,000 154 463 -64
2022-07-04 01:43:21 GMT 48.348873 21.498798 29,000 161 461 -64
2022-07-04 01:43:17 GMT 48.356735 21.494398 29,000 155 463 -128
2022-07-04 01:43:14 GMT 48.369171 21.485573 29,000 152 464 64
2022-07-04 01:43:10 GMT 48.369171 21.485573 29,000 152 464 0
2022-07-04 01:43:07 GMT 48.377178 21.479212 29,000 152 465 64
2022-07-04 01:43:04 GMT 48.382114 21.475307 29,000 152 465 0
2022-07-04 01:42:59 GMT 48.392403 21.467140 29,000 151 464 0
2022-07-04 01:42:56 GMT 48.397243 21.463238 29,000 151 465 0
2022-07-04 01:42:53 GMT 48.402039 21.459408 29,000 151 464 0
2022-07-04 01:42:50 GMT 48.407997 21.454636 29,000 151 465 0
2022-07-04 01:42:47 GMT 48.420753 21.444445 29,000 151 465 0
2022-07-04 01:42:44 GMT 48.420753 21.444445 29,000 151 465 -64
2022-07-04 01:42:40 GMT 48.426708 21.439604 29,000 151 465 -64
2022-07-04 01:42:36 GMT 48.435333 21.432707 29,000 151 465 -64
2022-07-04 01:42:33 GMT 48.440277 21.428762 29,000 151 466 0
2022-07-04 01:42:29 GMT 48.449009 21.421749 29,000 151 467 0
2022-07-04 01:42:26 GMT 48.455387 21.416618 29,000 151 468 0
2022-07-04 01:42:23 GMT 48.459019 21.413727 29,000 151 467 0
2022-07-04 01:42:17 GMT 48.471771 21.403463 29,000 151 469 0
2022-07-04 01:42:14 GMT 48.478226 21.398268 29,000 151 469 0
2022-07-04 01:42:09 GMT 48.486996 21.391249 29,000 151 469 0
2022-07-04 01:42:05 GMT 48.494492 21.385248 29,000 151 469 0
2022-07-04 01:42:02 GMT 48.499008 21.381578 29,000 151 469 -64
2022-07-04 01:41:59 GMT 48.505428 21.376431 29,000 151 470 0
2022-07-04 01:41:56 GMT 48.512135 21.371010 29,000 151 470 0
2022-07-04 01:41:53 GMT 48.517208 21.366962 29,000 151 470 0
2022-07-04 01:41:50 GMT 48.530380 21.356339 29,000 151 470 0
2022-07-04 01:41:46 GMT 48.530380 21.356339 29,000 151 470 0
2022-07-04 01:41:43 GMT 48.536388 21.351496 29,000 151 471 0
2022-07-04 01:41:37 GMT 48.547375 21.342676 29,000 151 470 64
2022-07-04 01:41:34 GMT 48.553391 21.337772 29,000 151 472 0
2022-07-04 01:41:31 GMT 48.559105 21.333208 29,000 151 472 0
2022-07-04 01:41:28 GMT 48.566711 21.327068 29,000 151 472 0
2022-07-04 01:41:25 GMT 48.570602 21.323957 29,000 151 472 0
2022-07-04 01:41:21 GMT 48.577957 21.318029 29,000 151 472 0
2022-07-04 01:41:17 GMT 48.585918 21.311598 29,000 151 472 0
2022-07-04 01:41:14 GMT 48.593647 21.305382 29,000 151 472 0
2022-07-04 01:41:11 GMT 48.597649 21.302200 29,000 151 472 0
2022-07-04 01:41:08 GMT 48.603237 21.297720 29,000 151 472 0
2022-07-04 01:41:05 GMT 48.608822 21.293240 29,000 151 472 0
2022-07-04 01:41:02 GMT 48.614502 21.288687 29,000 151 472 0
2022-07-04 01:40:59 GMT 48.620602 21.283770 29,000 151 472 0
2022-07-04 01:40:56 GMT 48.627628 21.278061 29,000 151 472 0
2022-07-04 01:40:53 GMT 48.632675 21.274038 29,000 151 472 0
2022-07-04 01:40:50 GMT 48.636978 21.270588 29,000 151 472 0
2022-07-04 01:40:46 GMT 48.644993 21.264111 29,000 151 472 0
2022-07-04 01:40:43 GMT 48.652863 21.257771 29,000 151 472 0
2022-07-04 01:40:40 GMT 48.656631 21.254713 29,000 151 472 0
2022-07-04 01:40:37 GMT 48.664780 21.248137 29,000 151 472 0
2022-07-04 01:40:34 GMT 48.675766 21.239246 29,000 151 472 0
2022-07-04 01:40:30 GMT 48.675766 21.239246 29,000 151 472 0
2022-07-04 01:40:26 GMT 48.691639 21.226381 29,000 151 471 0
2022-07-04 01:40:23 GMT 48.695572 21.223190 29,000 151 472 0
2022-07-04 01:40:20 GMT 48.695572 21.223190 29,000 151 472 0
2022-07-04 01:40:16 GMT 48.703697 21.216623 29,000 151 472 0
2022-07-04 01:40:13 GMT 48.708664 21.212627 29,000 151 472 -64
2022-07-04 01:40:10 GMT 48.714916 21.207516 29,000 151 472 0
2022-07-04 01:40:07 GMT 48.722214 21.201641 29,000 151 472 0
2022-07-04 01:40:04 GMT 48.727844 21.197063 29,000 151 472 0
2022-07-04 01:40:00 GMT 48.734978 21.191326 29,000 151 472 0
2022-07-04 01:39:57 GMT 48.740570 21.186783 29,000 151 472 0
2022-07-04 01:39:54 GMT 48.744987 21.183159 29,000 151 472 0
2022-07-04 01:39:51 GMT 48.752518 21.177134 29,000 151 472 0
2022-07-04 01:39:48 GMT 48.759247 21.171640 29,000 151 472 -64
2022-07-04 01:39:45 GMT 48.764305 21.167545 29,000 151 472 0
2022-07-04 01:39:41 GMT 48.772221 21.161114 29,000 151 472 64
2022-07-04 01:39:37 GMT 48.777527 21.156849 29,000 151 472 0
2022-07-04 01:39:34 GMT 48.786301 21.149738 29,000 151 472 0
2022-07-04 01:39:31 GMT 48.791492 21.145500 29,000 151 472 64
2022-07-04 01:39:28 GMT 48.801502 21.137405 29,000 151 472 256
2022-07-04 01:39:25 GMT 48.801502 21.137405 28,950 151 472 896
2022-07-04 01:39:22 GMT 48.806351 21.133471 28,950 151 472 896
2022-07-04 01:39:19 GMT 48.813931 21.127287 28,875 151 472 1792
2022-07-04 01:39:16 GMT 48.818756 21.123400 28,750 151 473 1280
2022-07-04 01:39:13 GMT 48.826263 21.117271 28,725 151 474 832
2022-07-04 01:39:08 GMT 48.833130 21.111708 28,675 151 474 192
2022-07-04 01:39:05 GMT 48.840050 21.106037 28,700 151 473 -640
2022-07-04 01:39:02 GMT 48.844849 21.102131 28,725 151 473 -768
2022-07-04 01:38:59 GMT 48.852200 21.096207 28,775 151 472 -704
2022-07-04 01:38:55 GMT 48.860809 21.089195 28,800 151 472 128
2022-07-04 01:38:52 GMT 48.865791 21.085150 28,775 151 471 640
2022-07-04 01:38:49 GMT 48.870667 21.081144 28,725 151 471 1024
2022-07-04 01:38:46 GMT 48.876389 21.076496 28,675 151 470 1152
2022-07-04 01:38:43 GMT 48.882225 21.071777 28,625 151 470 1152
2022-07-04 01:38:40 GMT 48.889023 21.066214 28,600 151 469 1152
2022-07-04 01:38:37 GMT 48.893024 21.062960 28,450 151 468 1152
2022-07-04 01:38:34 GMT 48.900845 21.056526 28,475 151 468 1152
2022-07-04 01:38:31 GMT 48.904430 21.053635 28,425 151 468 1152
2022-07-04 01:38:28 GMT 48.911591 21.047762 28,325 151 468 1216
2022-07-04 01:38:25 GMT 48.918674 21.042000 28,300 151 466 1216
2022-07-04 01:38:21 GMT 48.923355 21.038185 28,250 151 466 1280
2022-07-04 01:38:17 GMT 48.931057 21.031879 28,150 151 466 1280
2022-07-04 01:38:13 GMT 48.939011 21.025368 28,000 151 465 1216
2022-07-04 01:38:10 GMT 48.944324 21.021038 27,875 151 464 1216
2022-07-04 01:38:07 GMT 48.949951 21.016495 27,950 151 464 1216
2022-07-04 01:38:04 GMT 48.956985 21.010702 27,850 151 463 1280
2022-07-04 01:38:01 GMT 48.961689 21.006870 27,775 151 463 1280
2022-07-04 01:37:58 GMT 48.969833 21.000149 27,725 151 463 1280
2022-07-04 01:37:55 GMT 48.973606 20.997114 27,675 151 462 1344
2022-07-04 01:37:52 GMT 48.978493 20.993137 27,625 151 462 1280
2022-07-04 01:37:49 GMT 48.984127 20.988440 27,550 151 461 1216
2022-07-04 01:37:46 GMT 48.991333 20.982550 27,475 151 461 1152
2022-07-04 01:37:43 GMT 48.996643 20.978252 27,425 151 459 1152
2022-07-04 01:37:40 GMT 49.001541 20.974237 26,525 151 453 1344
2022-07-04 01:37:37 GMT 49.008102 20.968853 27,300 151 459 1280
2022-07-04 01:37:34 GMT 49.013966 20.964010 27,225 151 459 1280
2022-07-04 01:37:31 GMT 49.018936 20.959942 27,150 151 457 1280
2022-07-04 01:37:28 GMT 49.023972 20.955856 27,075 151 457 1280
2022-07-04 01:37:25 GMT 49.031376 20.949772 27,025 151 456 1344
2022-07-04 01:37:22 GMT 49.035473 20.946445 26,950 151 456 1344
2022-07-04 01:37:19 GMT 49.041367 20.941561 26,900 151 455 1280
2022-07-04 01:37:16 GMT 49.046951 20.936983 26,825 151 455 1216
2022-07-04 01:37:12 GMT 49.054096 20.931124 26,750 151 454 1280
2022-07-04 01:37:09 GMT 49.059959 20.926353 26,700 151 453 1344
2022-07-04 01:37:06 GMT 49.065308 20.921913 26,600 151 453 1344
2022-07-04 01:37:03 GMT 49.071644 20.916740 26,550 151 452 1408
2022-07-04 01:37:00 GMT 49.076431 20.912828 26,500 151 452 1408
2022-07-04 01:36:56 GMT 49.084541 20.906115 26,400 151 451 1344
2022-07-04 01:36:53 GMT 49.088425 20.902899 26,325 151 451 1344
2022-07-04 01:36:50 GMT 49.095520 20.897053 26,275 151 450 1344
2022-07-04 01:36:47 GMT 49.099045 20.894165 26,225 151 450 1344
2022-07-04 01:36:43 GMT 49.109398 20.885660 26,100 151 449 1408
2022-07-04 01:36:40 GMT 49.113262 20.882481 26,025 151 447 1472
2022-07-04 01:36:37 GMT 49.119095 20.877615 25,950 151 447 1536
2022-07-04 01:36:34 GMT 49.124954 20.872826 25,900 151 447 1600
2022-07-04 01:36:31 GMT 49.129555 20.868963 25,825 151 447 1600
2022-07-04 01:36:28 GMT 49.134201 20.865150 25,725 151 447 1600
2022-07-04 01:36:25 GMT 49.141571 20.859093 25,475 151 446 1664
2022-07-04 01:36:22 GMT 49.147617 20.854074 25,400 151 446 1728
2022-07-04 01:36:17 GMT 49.153111 20.849522 25,475 151 446 1728
2022-07-04 01:36:14 GMT 49.162189 20.842005 25,325 151 445 1728
2022-07-04 01:36:11 GMT 49.165958 20.838896 25,275 151 443 1728
2022-07-04 01:36:08 GMT 49.175316 20.831161 25,100 151 444 1600
2022-07-04 01:36:05 GMT 49.175316 20.831161 25,100 151 444 1600
2022-07-04 01:36:02 GMT 49.180531 20.826826 25,050 151 444 1664
2022-07-04 01:35:59 GMT 49.187576 20.820993 24,900 151 443 1792
2022-07-04 01:35:56 GMT 49.192291 20.817120 24,800 151 443 1792
2022-07-04 01:35:53 GMT 49.198780 20.811720 24,750 151 443 1792
2022-07-04 01:35:50 GMT 49.202129 20.808973 24,525 151 443 1856
2022-07-04 01:35:46 GMT 49.211906 20.800879 24,525 151 443 1856
2022-07-04 01:35:43 GMT 49.217541 20.796251 24,425 151 442 1856
2022-07-04 01:35:40 GMT 49.220215 20.793949 24,375 151 442 1856
2022-07-04 01:35:37 GMT 49.226196 20.789024 24,250 151 442 1792
2022-07-04 01:35:34 GMT 49.232208 20.784019 24,150 151 441 1792
2022-07-04 01:35:31 GMT 49.237747 20.779442 24,100 151 441 1792
2022-07-04 01:35:28 GMT 49.243195 20.774864 23,950 151 441 1792
2022-07-04 01:35:25 GMT 49.247864 20.771063 23,875 151 441 1792
2022-07-04 01:35:22 GMT 49.258411 20.762281 23,625 151 439 1728
2022-07-04 01:35:19 GMT 49.258411 20.762281 23,625 151 439 1728
2022-07-04 01:35:16 GMT 49.264572 20.757189 23,250 151 437 1728
2022-07-04 01:35:13 GMT 49.269398 20.753174 23,525 151 439 1728
2022-07-04 01:35:10 GMT 49.274239 20.749199 23,475 151 439 1728
2022-07-04 01:35:07 GMT 49.280457 20.744019 23,375 151 438 1728
2022-07-04 01:35:04 GMT 49.286407 20.739017 23,300 151 438 1728
2022-07-04 01:35:00 GMT 49.292038 20.734369 23,225 151 437 1664
2022-07-04 01:34:56 GMT 49.299591 20.728031 23,050 151 435 1536
2022-07-04 01:34:53 GMT 49.305199 20.723394 23,000 151 434 1472
2022-07-04 01:34:50 GMT 49.310505 20.718987 22,825 151 432 1536
2022-07-04 01:34:46 GMT 49.317673 20.713032 22,850 151 432 1472
2022-07-04 01:34:42 GMT 49.325356 20.706627 22,725 151 431 1600
2022-07-04 01:34:39 GMT 49.329544 20.703157 22,675 151 430 1600
2022-07-04 01:34:35 GMT 49.336712 20.697159 22,450 151 428 1728
2022-07-04 01:34:32 GMT 49.342163 20.692678 22,400 151 428 1728
2022-07-04 01:34:29 GMT 49.346375 20.689157 22,375 151 428 1728
2022-07-04 01:34:26 GMT 49.352448 20.684076 22,275 151 426 1728
2022-07-04 01:34:23 GMT 49.357819 20.679581 22,175 151 426 1728
2022-07-04 01:34:20 GMT 49.363907 20.674509 21,975 151 424 1664
2022-07-04 01:34:16 GMT 49.375076 20.665213 21,975 151 423 1792
2022-07-04 01:34:13 GMT 49.375076 20.665213 21,925 151 423 1792
2022-07-04 01:34:09 GMT 49.381119 20.660213 21,700 151 423 1984
2022-07-04 01:34:06 GMT 49.388031 20.654438 21,500 151 421 1920
2022-07-04 01:34:03 GMT 49.392437 20.650755 21,600 151 422 1856
2022-07-04 01:33:59 GMT 49.398605 20.645636 21,500 151 421 1920
2022-07-04 01:33:54 GMT 49.407120 20.638521 21,300 151 420 2048
2022-07-04 01:33:51 GMT 49.417248 20.630156 21,050 151 419 2048
2022-07-04 01:33:48 GMT 49.417248 20.630156 21,125 151 419 2112
2022-07-04 01:33:45 GMT 49.422775 20.625563 20,975 151 419 2048
2022-07-04 01:33:42 GMT 49.429260 20.620150 20,875 151 418 1984
2022-07-04 01:33:38 GMT 49.434193 20.616068 20,550 151 417 2048
2022-07-04 01:33:35 GMT 49.439594 20.611540 20,450 151 417 1984
2022-07-04 01:33:32 GMT 49.445412 20.606714 20,475 151 417 2048
2022-07-04 01:33:29 GMT 49.451065 20.602039 20,425 151 417 1984
2022-07-04 01:33:26 GMT 49.455048 20.598787 20,300 151 416 1984
2022-07-04 01:33:23 GMT 49.461845 20.593130 20,225 151 416 2048
2022-07-04 01:33:19 GMT 49.468002 20.588018 20,075 151 414 2240
2022-07-04 01:33:16 GMT 49.470692 20.585781 19,950 151 414 2176
2022-07-04 01:33:13 GMT 49.477890 20.579779 19,875 151 413 2112
2022-07-04 01:33:10 GMT 49.481461 20.576887 19,825 151 413 2048
2022-07-04 01:33:06 GMT 49.490067 20.569513 19,650 149 412 1984
2022-07-04 01:33:03 GMT 49.493637 20.566261 19,575 146 412 2112
2022-07-04 01:33:00 GMT 49.497803 20.562359 19,475 147 412 2048
2022-07-04 01:32:57 GMT 49.504860 20.555346 19,325 145 411 2240
2022-07-04 01:32:53 GMT 49.508789 20.551155 19,150 144 411 2240
2022-07-04 01:32:50 GMT 49.513321 20.546242 19,125 144 411 2176
2022-07-04 01:32:46 GMT 49.521973 20.536917 18,925 144 409 1984
2022-07-04 01:32:43 GMT 49.524273 20.534412 18,825 144 409 1920
2022-07-04 01:32:40 GMT 49.528973 20.529289 18,700 144 408 1920
2022-07-04 01:32:37 GMT 49.534470 20.523401 18,450 144 406 2176
2022-07-04 01:32:34 GMT 49.538891 20.518600 18,575 144 406 2176
2022-07-04 01:32:30 GMT 49.544861 20.512125 18,425 144 406 2176
2022-07-04 01:32:27 GMT 49.549644 20.506947 18,250 144 405 1984
2022-07-04 01:32:24 GMT 49.554298 20.501900 17,200 144 396 2176
2022-07-04 01:32:21 GMT 49.560257 20.495516 18,100 144 403 1856
2022-07-04 01:32:17 GMT 49.565002 20.490370 17,950 144 401 1984
2022-07-04 01:32:14 GMT 49.569763 20.485237 17,900 144 401 1984
2022-07-04 01:32:10 GMT 49.575897 20.478590 17,750 144 399 2112
2022-07-04 01:32:06 GMT 49.581161 20.472878 17,350 144 397 2240
2022-07-04 01:32:03 GMT 49.585396 20.468346 17,400 144 398 2304
2022-07-04 01:32:00 GMT 49.590748 20.462557 17,400 144 397 2240
2022-07-04 01:31:56 GMT 49.596893 20.455875 17,175 144 396 2176
2022-07-04 01:31:53 GMT 49.600616 20.451866 17,100 144 395 2112
2022-07-04 01:31:50 GMT 49.605423 20.446712 17,025 144 394 2176
2022-07-04 01:31:46 GMT 49.612068 20.439470 16,850 144 393 1984
2022-07-04 01:31:43 GMT 49.615795 20.435461 16,700 144 391 1856
2022-07-04 01:31:40 GMT 49.620914 20.429968 16,700 144 391 1856
2022-07-04 01:31:36 GMT 49.627075 20.423223 16,500 144 388 2496
2022-07-04 01:31:33 GMT 49.630505 20.419500 16,250 144 388 2240
2022-07-04 01:31:29 GMT 49.636230 20.413340 16,300 144 388 2432
2022-07-04 01:31:26 GMT 49.643028 20.405916 16,125 144 388 1920
2022-07-04 01:31:23 GMT 49.645264 20.403467 16,100 144 386 1664
2022-07-04 01:31:19 GMT 49.650696 20.397564 15,775 144 380 2048
2022-07-04 01:31:16 GMT 49.655830 20.391960 15,850 144 382 1920
2022-07-04 01:31:13 GMT 49.660080 20.387371 15,775 144 380 2048
2022-07-04 01:31:09 GMT 49.665371 20.381569 15,650 144 380 2368
2022-07-04 01:31:05 GMT 49.670700 20.375736 15,500 144 380 2496
2022-07-04 01:31:02 GMT 49.679523 20.366129 15,125 144 377 2112
2022-07-04 01:30:59 GMT 49.679523 20.366129 15,250 144 377 2112
2022-07-04 01:30:56 GMT 49.685623 20.359447 15,075 144 376 2112
2022-07-04 01:30:53 GMT 49.688553 20.356220 15,000 144 375 2240
2022-07-04 01:30:50 GMT 49.693489 20.350838 14,825 144 374 2432
2022-07-04 01:30:47 GMT 49.696327 20.347719 14,825 144 374 2432
2022-07-04 01:30:44 GMT 49.702103 20.341410 14,625 144 374 2688
2022-07-04 01:30:40 GMT 49.708900 20.333912 14,400 144 372 2752
2022-07-04 01:30:37 GMT 49.711807 20.330706 14,300 144 372 2880
2022-07-04 01:30:34 GMT 49.715378 20.326803 14,150 144 372 3008
2022-07-04 01:30:31 GMT 49.718952 20.322926 14,050 144 372 3008
2022-07-04 01:30:28 GMT 49.727844 20.313202 13,875 144 373 3008
2022-07-04 01:30:25 GMT 49.732037 20.308599 13,700 144 373 2688
2022-07-04 01:30:22 GMT 49.732037 20.308599 13,625 144 373 2432
2022-07-04 01:30:18 GMT 49.737854 20.302288 13,475 144 372 2240
2022-07-04 01:30:14 GMT 49.743027 20.296591 13,350 144 372 2304
2022-07-04 01:30:11 GMT 49.746872 20.292398 13,275 144 370 2368
2022-07-04 01:30:08 GMT 49.751213 20.287664 13,100 144 370 2176
2022-07-04 01:30:05 GMT 49.757034 20.281340 12,900 144 368 2112
2022-07-04 01:30:02 GMT 49.760525 20.277496 12,825 144 367 2176
2022-07-04 01:29:59 GMT 49.765411 20.272161 12,725 144 366 2304
2022-07-04 01:29:55 GMT 49.769943 20.267174 12,525 144 366 2432
2022-07-04 01:29:52 GMT 49.775574 20.261030 12,425 144 365 2496
2022-07-04 01:29:48 GMT 49.779099 20.257128 12,075 144 363 2304
2022-07-04 01:29:44 GMT 49.784637 20.251068 12,175 144 365 2304
2022-07-04 01:29:41 GMT 49.789124 20.246214 12,075 144 364 2304
2022-07-04 01:29:38 GMT 49.793251 20.241716 11,925 144 363 2240
2022-07-04 01:29:35 GMT 49.798466 20.236000 11,775 144 362 2368
2022-07-04 01:29:32 GMT 49.807545 20.226053 11,650 144 360 2496
2022-07-04 01:29:28 GMT 49.807545 20.226053 11,525 144 360 2432
2022-07-04 01:29:24 GMT 49.812710 20.220486 11,325 144 359 1984
2022-07-04 01:29:21 GMT 49.816711 20.216106 11,250 144 358 1856
2022-07-04 01:29:18 GMT 49.821121 20.211302 11,075 144 350 896
2022-07-04 01:29:15 GMT 49.824440 20.207644 11,150 144 355 1152
2022-07-04 01:29:11 GMT 49.831329 20.200071 11,050 144 350 896
2022-07-04 01:29:08 GMT 49.834682 20.196434 11,025 144 347 960
2022-07-04 01:29:03 GMT 49.841339 20.189159 10,775 144 336 1024
2022-07-04 01:29:00 GMT 49.844692 20.185522 10,900 144 339 1024
2022-07-04 01:28:57 GMT 49.848083 20.181740 10,850 144 337 1024
2022-07-04 01:28:53 GMT 49.853352 20.175945 10,775 144 332 960
2022-07-04 01:28:50 GMT 49.856518 20.172457 10,725 144 329 896
2022-07-04 01:28:47 GMT 49.860565 20.168003 10,700 144 326 832
2022-07-04 01:28:43 GMT 49.865616 20.162441 10,600 144 320 1216
2022-07-04 01:28:40 GMT 49.870434 20.157166 10,550 144 319 1280
2022-07-04 01:28:34 GMT 49.875835 20.151228 10,400 144 313 768
2022-07-04 01:28:31 GMT 49.881001 20.145437 10,400 144 310 640
2022-07-04 01:28:28 GMT 49.884613 20.141481 10,350 144 306 896
2022-07-04 01:28:23 GMT 49.889755 20.135786 10,225 144 301 1984
2022-07-04 01:28:20 GMT 49.892670 20.132591 10,150 144 301 2176
2022-07-04 01:28:16 GMT 49.897064 20.127748 9,825 144 298 2112
2022-07-04 01:28:13 GMT 49.901459 20.122906 9,850 144 299 2112
2022-07-04 01:28:10 GMT 49.905582 20.118416 9,750 144 298 2048
2022-07-04 01:28:06 GMT 49.909241 20.114376 9,625 144 297 2112
2022-07-04 01:28:02 GMT 49.913124 20.110176 9,300 144 294 2240
2022-07-04 01:27:59 GMT 49.916428 20.106539 9,400 144 294 2112
2022-07-04 01:27:56 GMT 49.919735 20.102901 9,300 144 294 2240
2022-07-04 01:27:52 GMT 49.924896 20.097319 9,075 144 292 2240
2022-07-04 01:27:49 GMT 49.927414 20.094500 9,025 144 292 2176
2022-07-04 01:27:41 GMT 49.936249 20.084742 8,625 144 290 2944
2022-07-04 01:27:38 GMT 49.939007 20.081673 8,625 144 290 2944
2022-07-04 01:27:34 GMT 49.943523 20.076698 8,375 144 291 3136
2022-07-04 01:27:31 GMT 49.946827 20.072912 8,150 144 291 2880
2022-07-04 01:27:28 GMT 49.951061 20.068235 8,050 144 292 2880
2022-07-04 01:27:24 GMT 49.955475 20.063349 7,800 144 293 2816
2022-07-04 01:27:21 GMT 49.958370 20.060144 7,675 144 293 2624
2022-07-04 01:27:18 GMT 49.962204 20.055902 7,425 144 289 2240
2022-07-04 01:27:15 GMT 49.964813 20.053013 7,425 144 291 2176
2022-07-04 01:27:12 GMT 49.968658 20.048786 7,350 144 290 2112
2022-07-04 01:27:09 GMT 49.971035 20.046188 7,250 144 289 2176
2022-07-04 01:27:06 GMT 49.974243 20.042677 7,175 144 289 2240
2022-07-04 01:27:02 GMT 49.979370 20.037039 6,950 144 286 2304
2022-07-04 01:26:59 GMT 49.983231 20.032753 6,875 144 286 2368
2022-07-04 01:26:55 GMT 49.987564 20.027931 6,700 144 284 2624
2022-07-04 01:26:52 GMT 49.990311 20.024824 6,525 144 283 2560
2022-07-04 01:26:49 GMT 49.993195 20.021692 6,425 144 283 2496
2022-07-04 01:26:46 GMT 49.996590 20.017832 6,125 144 280 2112
2022-07-04 01:26:42 GMT 49.999695 20.014343 6,225 144 282 2176
2022-07-04 01:26:39 GMT 50.004829 20.008553 6,050 144 279 2048
2022-07-04 01:26:36 GMT 50.006973 20.006176 5,950 144 277 1984
2022-07-04 01:26:33 GMT 50.009995 20.002779 5,850 143 276 1920
2022-07-04 01:26:30 GMT 50.016266 19.995695 5,750 143 274 1984
2022-07-04 01:26:27 GMT 50.016266 19.995695 5,700 143 271 2112
2022-07-04 01:26:23 GMT 50.020569 19.990780 5,550 143 269 2240
2022-07-04 01:26:19 GMT 50.024288 19.986582 5,125 143 256 1408
2022-07-04 01:26:16 GMT 50.026756 19.983761 5,225 143 256 1408
2022-07-04 01:26:13 GMT 50.029678 19.980446 5,275 143 260 1216
2022-07-04 01:26:10 GMT 50.033569 19.975964 5,200 143 256 1472
2022-07-04 01:26:07 GMT 50.036346 19.972849 5,150 143 253 1664
2022-07-04 01:26:04 GMT 50.039154 19.969675 5,050 144 250 1984
2022-07-04 01:26:00 GMT 50.042633 19.965796 4,900 144 247 2048
2022-07-04 01:25:57 GMT 50.045517 19.962521 4,750 144 246 1664
2022-07-04 01:25:52 GMT 50.049591 19.958038 4,725 144 240 832
2022-07-04 01:25:49 GMT 50.052361 19.954958 4,650 144 235 768
2022-07-04 01:25:46 GMT 50.055527 19.951469 4,500 145 225 1152
2022-07-04 01:25:41 GMT 50.059845 19.946762 4,525 145 224 1216
2022-07-04 01:25:38 GMT 50.061905 19.944490 4,500 145 222 1280
2022-07-04 01:25:35 GMT 50.064560 19.941631 4,450 146 218 1152
2022-07-04 01:25:32 GMT 50.067909 19.938181 4,350 146 214 960
2022-07-04 01:25:29 GMT 50.070377 19.935583 4,325 146 211 704
2022-07-04 01:25:25 GMT 50.072983 19.932959 4,300 147 206 832
2022-07-04 01:25:19 GMT 50.078522 19.927608 3,825 147 198 1024
2022-07-04 01:25:16 GMT 50.079987 19.926165 4,125 146 195 1024
2022-07-04 01:25:12 GMT 50.083458 19.922297 4,025 135 188 1408
2022-07-04 01:25:09 GMT 50.084976 19.920092 3,975 130 187 1600
2022-07-04 01:25:06 GMT 50.087135 19.916134 3,875 111 185 2048
2022-07-04 01:25:00 GMT 50.089462 19.909683 3,525 99 186 2112
2022-07-04 01:24:57 GMT 50.090443 19.905445 3,575 102 186 2112
2022-07-04 01:24:49 GMT 50.091568 19.895084 3,275 89 187 2112
2022-07-04 01:24:46 GMT 50.091614 19.892265 3,225 87 187 2048
2022-07-04 01:24:41 GMT 50.091248 19.885254 3,000 79 186 1984
2022-07-04 01:24:38 GMT 50.090580 19.879612 2,900 78 185 1856
2022-07-04 01:24:35 GMT 50.090424 19.878242 2,875 78 186 1920
2022-07-04 01:24:29 GMT 50.089279 19.869207 2,650 78 183 1728
2022-07-04 01:24:26 GMT 50.088810 19.865507 2,575 79 183 1792
2022-07-04 01:24:22 GMT 50.088181 19.860462 2,425 79 182 1984
2022-07-04 01:24:19 GMT 50.087692 19.856453 2,325 78 181 1920
2022-07-04 01:24:16 GMT 50.087173 19.852585 2,250 78 181 1856
2022-07-04 01:24:12 GMT 50.086533 19.847597 2,150 77 181 1664
2022-07-04 01:24:08 GMT 50.085068 19.837406 2,025 77 177 1408
2022-07-04 01:24:05 GMT 50.085068 19.837406 1,950 78 175 1280
2022-07-04 01:24:00 GMT 50.084435 19.832699 1,500 77 168 2560
2022-07-04 01:23:57 GMT 50.084015 19.829580 1,750 78 169 1856
2022-07-04 01:23:54 GMT 50.083458 19.825422 1,700 77 168 2176
2022-07-04 01:23:50 GMT 50.082779 19.820492 1,500 77 170 2816
2022-07-04 01:23:45 GMT 50.082001 19.814999 1,275 77 170 2752
2022-07-04 01:23:39 GMT 50.081085 19.808565 1,025 77 171 2688
2022-07-04 01:23:34 GMT 50.080200 19.802338 850 77 169 1920
2022-07-04 01:23:23 GMT 50.078430 19.789717 675 77 150 128
2022-07-04 01:23:14 GMT 50.077194 19.780956 675 77 117 0
2022-07-04 01:23:10 GMT 50.076603 19.776615 0 78 94 0
2022-07-04 01:23:05 GMT 50.076263 19.774202 0 78 78 0
2022-07-04 01:22:54 GMT 50.075672 19.769972 0 78 25 0
2022-07-04 01:22:49 GMT 50.075558 19.769211 0 75 15 0
2022-07-04 01:22:43 GMT 50.075420 19.768705 0 42 11 0
2022-07-04 01:22:38 GMT 50.075230 19.768488 0 16 9 0
2022-07-04 01:22:34 GMT 50.075089 19.768435 0 0 9 0
2022-07-04 01:22:25 GMT 50.074657 19.768524 0 345 11 0
2022-07-04 01:22:18 GMT 50.074345 19.768633 0 348 12 0
2022-07-04 01:22:14 GMT 50.074123 19.768709 0 348 12 0
2022-07-04 01:22:09 GMT 50.073856 19.768803 0 345 10 0
2022-07-04 01:22:04 GMT 50.073647 19.768877 0 345 9 0
2022-07-04 01:21:58 GMT 50.073425 19.768951 0 337 9 0
2022-07-04 01:21:54 GMT 50.073277 19.769045 0 317 9 0
2022-07-04 01:21:47 GMT 50.073112 19.769396 0 275 10 0
2022-07-04 01:21:43 GMT 50.073090 19.769619 0 264 10 0
2022-07-04 01:21:37 GMT 50.073154 19.770132 0 258 15 0
2022-07-04 01:21:32 GMT 50.073250 19.770824 0 258 16 0
2022-07-04 01:21:22 GMT 50.073372 19.771687 0 258 15 0
2022-07-04 01:21:13 GMT 50.073498 19.772661 0 258 15 0
2022-07-04 01:21:02 GMT 50.073658 19.773783 0 258 15 0
2022-07-04 01:20:51 GMT 50.073811 19.774872 0 258 15 0
2022-07-04 01:20:42 GMT 50.073944 19.775824 0 258 16 0
2022-07-04 01:20:33 GMT 50.074104 19.776981 0 258 16 0
2022-07-04 01:20:27 GMT 50.074184 19.777559 0 258 17 0
2022-07-04 01:20:22 GMT 50.074265 19.778063 0 258 17 0
2022-07-04 01:20:12 GMT 50.074425 19.779276 0 258 17 0
2022-07-04 01:20:02 GMT 50.074596 19.780504 0 258 18 0
2022-07-04 01:19:55 GMT 50.074707 19.781292 0 258 18 0
2022-07-04 01:19:52 GMT 50.074776 19.781775 0 258 18 0
2022-07-04 01:19:42 GMT 50.074951 19.783073 0 258 18 0
2022-07-04 01:19:31 GMT 50.075138 19.784317 0 258 17 0
2022-07-04 01:19:21 GMT 50.075287 19.785467 0 258 17 0
2022-07-04 01:19:14 GMT 50.075405 19.786303 0 258 16 0
2022-07-04 01:19:11 GMT 50.075443 19.786594 0 258 16 0
2022-07-04 01:19:00 GMT 50.075603 19.787731 0 258 16 0
2022-07-04 01:18:51 GMT 50.075764 19.788828 0 258 15 0
2022-07-04 01:18:44 GMT 50.075844 19.789431 0 258 15 0
2022-07-04 01:18:40 GMT 50.075901 19.789846 0 258 15 0
2022-07-04 01:18:30 GMT 50.076042 19.790812 0 258 15 0
2022-07-04 01:18:20 GMT 50.076183 19.791889 0 258 15 0
2022-07-04 01:18:10 GMT 50.076313 19.792810 0 258 13 0
2022-07-04 01:18:00 GMT 50.076439 19.793695 0 258 13 0
2022-07-04 01:17:49 GMT 50.076580 19.794655 0 258 14 0
2022-07-04 01:17:42 GMT 50.076679 19.795303 0 253 14 0
2022-07-04 01:17:38 GMT 50.076744 19.795637 0 255 14 0
2022-07-04 01:17:29 GMT 50.076870 19.796528 0 258 13 0
2022-07-04 01:17:12 GMT 50.077068 19.797939 0 258 12 0
2022-07-04 01:17:09 GMT 50.077114 19.798290 0 258 12 0
2022-07-04 01:16:48 GMT 50.077114 19.799553 0 320 6 0
2022-07-04 01:16:36 GMT 50.076828 19.799767 0 8 7 0
2022-07-04 01:16:26 GMT 50.076485 19.799604 0 25 9 0
2022-07-04 01:16:17 GMT 50.076141 19.799370 0 19 11 0
2022-07-04 01:16:11 GMT 50.075836 19.799238 0 0 12 0
2022-07-04 01:16:08 GMT 50.075649 19.799244 0 348 13 0
2022-07-04 01:16:01 GMT 50.075287 19.799368 0 348 13 0
2022-07-04 01:15:57 GMT 50.075066 19.799440 0 348 13 0
2022-07-04 01:15:51 GMT 50.074745 19.799549 0 348 12 0
2022-07-04 01:15:47 GMT 50.074539 19.799622 0 345 11 0
2022-07-04 01:15:41 GMT 50.074276 19.799730 0 331 10 0
2022-07-04 01:15:36 GMT 50.074104 19.799911 0 295 8 0
2022-07-04 01:15:31 GMT 50.074032 19.800146 0 272 7 0
2022-07-04 01:15:27 GMT 50.074024 19.800381 0 261 8 0
2022-07-04 01:15:20 GMT 50.074070 19.800707 0 258 9 0
2022-07-04 01:15:15 GMT 50.074112 19.801020 0 258 10 0
2022-07-04 01:15:07 GMT 50.074181 19.801502 0 255 8 0
2022-07-04 01:15:04 GMT 50.074207 19.801645 0 253 8 0
2022-07-04 01:15:01 GMT 50.074242 19.801853 0 244 7 0
2022-07-04 01:14:55 GMT 50.074299 19.802044 0 225 6 0
2022-07-04 01:14:48 GMT 50.074425 19.802242 0 180 5 0
2022-07-04 01:14:45 GMT 50.074493 19.802259 0 171 5 0
2022-07-04 01:14:40 GMT 50.074589 19.802225 0 168 3 0
2022-07-04 01:14:35 GMT 50.074650 19.802208 0 168 2 0
2022-07-04 01:14:30 GMT 50.074696 19.802189 0 168 3 0
2022-07-04 01:14:25 GMT 50.074753 19.802170 0 168 4 0
2022-07-04 01:14:17 GMT 50.074848 19.802134 0 168 0 0
2022-07-04 01:14:07 GMT 50.074883 19.802134 0 168 0 0
2022-07-04 01:14:02 GMT 50.074883 19.802134 0 168 0 0
2022-07-04 01:13:58 GMT 50.074883 19.802134 0 168 0 0
2022-07-04 01:13:52 GMT 50.074883 19.802134 0 168 0 0
2022-07-04 01:13:47 GMT 50.074883 19.802134 0 168 0 0
2022-07-04 01:13:33 GMT 50.074883 19.802134 0 168 0 0
2022-07-04 01:13:07 GMT 50.074883 19.802134 0 168 0 0
2022-07-04 01:13:02 GMT 50.074883 19.802134 0 168 0 0
2022-07-04 01:12:52 GMT 50.074883 19.802134 0 168 0 0
2022-07-04 01:12:37 GMT 50.074890 19.802134 0 168 0 0
2022-07-04 01:12:32 GMT 50.074894 19.802134 0 168 0 0
2022-07-04 01:12:27 GMT 50.074890 19.802134 0 168 0 0
2022-07-04 01:12:12 GMT 50.074894 19.802134 0 168 0 0
2022-07-04 01:11:53 GMT 50.074883 19.802134 0 168 0 0
2022-07-04 01:11:47 GMT 50.074890 19.802134 0 168 0 0
2022-07-04 01:11:41 GMT 50.074883 19.802134 0 168 0 0
2022-07-04 01:11:36 GMT 50.074890 19.802134 0 168 0 0
2022-07-04 01:11:12 GMT 50.074883 19.802134 0 168 0 0
2022-07-04 01:11:07 GMT 50.074890 19.802134 0 168 0 0
2022-07-04 01:11:02 GMT 50.074883 19.802134 0 168 0 0
2022-07-04 01:10:44 GMT 50.074890 19.802134 0 168 0 0

Making use of Plane Finder data

You are free to use the raw flight data, aircraft information and images provided in this report for your own purposes provided the data is correctly attributed to Plane Finder. We ask that you please credit Plane Finder and link to planefinder.net in close proximity to the content.

Optionally one of the following logos (no smaller then 150x24px) can be used and must link to planefinder.net

Embedding the Plane Finder map

You are welcome to embed the Plane Finder playback map on your website to offer visitors a more interactive experience. We suggest using the following HTML code:

<iframe src="//planefinder.net/data/report/LO159-SP-LWC-7700-squawk-2022-07-04/map" width="800" height="600" seamless="seamless"></iframe>

Where our data comes from

Plane Finder has a global network of data feeds and antenna radars that receive data broadcast directly from aircraft. The primary technologies used are ADS-B and MLAT. We also show feeds from the FAA and a FLARM glider feed.

Click here to find out more about the Plane Finder network.

How we collect our data